Cape Vincent, New York
Current Conditions -  °F | °C
As of 10:00 AM on Monday 24 Nov 2014 (Local Time) from CYGK Reporting Station
Broken Clouds Broken Clouds  
Wind Chill: 52°   Ceiling: 5000
Heat Index: 52°   Visibility: 15mi
Dew Point: 50°   Wind: 21mph
Humidity: 94%   Direction: 160°SSE
Pressure: 29.33"   Gusts: 30mph
Location:  44.13°N, 76.33°W
Report Text: CYGK 241500Z 16018G26KT 15SM FEW020 BKN050 11/10 A2933 RMK CU1SC6 SLP932 DENSITY ALT 500FT
Loading
Personal Weather Stations






























Interactive Weather Map New forecast layout! Learn more

10-Day Weather Forecast

Advertisements
Track Severe Weather on mobile